Time;durP1;ratioP1;P1;durP2;ratioP2;P2;SDS_P1;SDS_P2;PMS_P1;PMS_P2;Temp;Humidity;BMP_temperature;BMP_pressure;BME280_temperature;BME280_humidity;BME280_pressure;Samples;Min_cycle;Max_cycle;Signal;HPM_P1;HPM_P2
2022/04/05 00:00:17;;;;;;;11.73;8.73;;;;;;;3.71;60.44;97373.57;2121450;84;20997;-82
2022/04/05 00:03:19;;;;;;;13.37;9.30;;;;;;;3.66;62.17;97380.38;2099249;84;21117;-82
2022/04/05 00:06:20;;;;;;;11.97;9.23;;;;;;;3.55;63.51;97381.92;2120280;84;21464;-80
2022/04/05 00:09:20;;;;;;;14.93;10.00;;;;;;;3.41;64.31;97366.19;2111056;84;21033;-82
2022/04/05 00:12:21;;;;;;;18.17;10.00;;;;;;;3.32;66.07;97378.94;2112339;84;20975;-82
2022/04/05 00:15:24;;;;;;;12.10;9.90;;;;;;;3.20;66.88;97378.30;2118714;84;21038;-80
2022/04/05 00:18:25;;;;;;;14.07;10.90;;;;;;;3.05;68.88;97370.73;2121178;84;21002;-81
2022/04/05 00:21:25;;;;;;;15.00;10.97;;;;;;;2.88;70.60;97357.13;2111371;83;20974;-81
2022/04/05 00:24:26;;;;;;;13.00;10.90;;;;;;;2.70;72.14;97372.24;2119666;83;20978;-81
2022/04/05 00:27:26;;;;;;;14.03;11.80;;;;;;;2.61;73.32;97376.35;2118172;84;20999;-82
2022/04/05 00:30:28;;;;;;;14.50;10.33;;;;;;;2.49;73.17;97369.22;2110963;83;21113;-80
2022/04/05 00:33:29;;;;;;;15.13;11.53;;;;;;;2.43;75.12;97369.97;2121731;84;21014;-80
2022/04/05 00:36:29;;;;;;;13.87;11.70;;;;;;;2.34;74.97;97358.61;2120401;84;20995;-79
2022/04/05 00:39:30;;;;;;;14.83;11.93;;;;;;;2.24;75.42;97353.70;2118366;84;20951;-79
2022/04/05 00:42:30;;;;;;;14.10;12.13;;;;;;;2.14;77.28;97345.34;2119369;84;20974;-79
2022/04/05 00:45:31;;;;;;;17.30;13.37;;;;;;;2.08;76.88;97337.06;2119840;84;21015;-79
2022/04/05 00:48:31;;;;;;;16.53;13.03;;;;;;;2.04;78.21;97342.12;2110795;84;21018;-78
2022/04/05 00:51:32;;;;;;;14.60;12.43;;;;;;;2.03;78.80;97342.95;2120710;84;21022;-79
2022/04/05 00:54:32;;;;;;;15.63;13.67;;;;;;;1.98;80.09;97331.28;2099631;84;20990;-80
2022/04/05 00:57:34;;;;;;;18.60;15.40;;;;;;;1.96;80.58;97314.94;2119292;84;20986;-79
2022/04/05 01:00:34;;;;;;;17.30;14.70;;;;;;;1.95;80.40;97299.46;2109358;83;21386;-79
2022/04/05 01:03:35;;;;;;;19.03;15.73;;;;;;;1.94;81.10;97293.87;2101315;83;20986;-77
2022/04/05 01:06:35;;;;;;;18.53;16.53;;;;;;;1.94;80.46;97279.72;2118697;83;20986;-79
2022/04/05 01:09:35;;;;;;;18.80;15.27;;;;;;;1.94;81.03;97301.59;2120191;84;20935;-79
2022/04/05 01:12:36;;;;;;;17.23;15.50;;;;;;;1.95;81.03;97309.34;2119831;84;21413;-78
2022/04/05 01:15:36;;;;;;;22.00;17.27;;;;;;;1.98;82.16;97298.24;2120879;84;21023;-78
2022/04/05 01:18:37;;;;;;;24.93;21.70;;;;;;;1.96;82.48;97296.05;2118872;83;21018;-79
2022/04/05 01:21:37;;;;;;;22.77;20.13;;;;;;;1.95;81.23;97308.47;2120112;83;20936;-79
2022/04/05 01:24:38;;;;;;;19.50;17.50;;;;;;;1.98;81.45;97308.53;2109970;84;20963;-79
2022/04/05 01:27:38;;;;;;;22.60;17.40;;;;;;;2.02;81.21;97288.46;2092498;84;20994;-80
2022/04/05 01:30:39;;;;;;;17.17;15.37;;;;;;;2.07;81.27;97288.13;2092371;84;20967;-80
2022/04/05 01:33:39;;;;;;;17.87;15.97;;;;;;;2.08;81.78;97285.59;2092483;84;21394;-80
2022/04/05 01:36:40;;;;;;;17.07;15.27;;;;;;;2.09;81.43;97271.88;2101445;84;21346;-80
2022/04/05 01:39:41;;;;;;;18.80;16.77;;;;;;;2.08;82.33;97249.97;2100433;84;21326;-79
2022/04/05 01:42:41;;;;;;;16.53;14.80;;;;;;;2.09;81.20;97271.88;2119592;84;21278;-80
2022/04/05 01:45:42;;;;;;;16.90;15.17;;;;;;;2.08;82.61;97292.02;2120373;84;21440;-80
2022/04/05 01:48:42;;;;;;;18.53;16.70;;;;;;;2.09;82.71;97269.31;2111407;83;20971;-80
2022/04/05 01:51:43;;;;;;;17.43;15.67;;;;;;;2.10;81.97;97254.73;2120878;84;20983;-80
2022/04/05 01:54:45;;;;;;;19.07;16.80;;;;;;;2.12;82.11;97264.64;2120848;84;20955;-79
2022/04/05 01:57:46;;;;;;;17.60;15.80;;;;;;;2.12;82.46;97259.49;2092518;84;21094;-79
2022/04/05 02:00:46;;;;;;;17.77;15.83;;;;;;;2.12;82.42;97251.77;2093049;84;20951;-79
2022/04/05 02:03:47;;;;;;;17.00;15.30;;;;;;;2.15;82.05;97259.13;2099836;84;20970;-79
2022/04/05 02:06:47;;;;;;;18.17;16.40;;;;;;;2.12;83.34;97251.77;2119266;84;20971;-80
2022/04/05 02:09:48;;;;;;;19.43;17.20;;;;;;;2.08;82.81;97251.27;2112376;84;20931;-80
2022/04/05 02:12:52;;;;;;;18.33;16.43;;;;;;;2.05;82.65;97252.07;2110792;84;21054;-79
2022/04/05 02:15:51;;;;;;;19.27;17.27;;;;;;;2.02;83.75;97244.29;2119972;84;21094;-80
2022/04/05 02:18:52;;;;;;;16.50;14.80;;;;;;;2.00;83.49;97240.82;2092603;84;21006;-79
2022/04/05 02:21:52;;;;;;;18.40;16.50;;;;;;;2.01;83.90;97245.55;2091522;85;20967;-79
2022/04/05 02:24:53;;;;;;;18.53;16.13;;;;;;;1.97;85.15;97247.19;2118773;84;20963;-78
2022/04/05 02:27:54;;;;;;;19.67;17.17;;;;;;;1.99;84.48;97248.51;2120774;84;20975;-80
2022/04/05 02:30:54;;;;;;;19.37;17.10;;;;;;;2.03;83.98;97232.29;2119529;84;20959;-80
2022/04/05 02:33:55;;;;;;;19.43;17.07;;;;;;;2.03;84.49;97239.59;2110578;84;20919;-79
2022/04/05 02:36:55;;;;;;;20.10;17.30;;;;;;;2.01;84.20;97242.55;2111972;84;21022;-80
2022/04/05 02:39:56;;;;;;;19.30;17.50;;;;;;;2.04;84.39;97222.44;2111287;84;20979;-80
2022/04/05 02:42:56;;;;;;;18.00;16.17;;;;;;;2.07;83.49;97234.08;2110123;84;21326;-80
2022/04/05 02:45:57;;;;;;;19.07;17.07;;;;;;;2.09;84.49;97242.70;2119694;84;20999;-81
2022/04/05 02:48:58;;;;;;;20.00;18.00;;;;;;;2.10;84.44;97230.28;2111209;84;21346;-80
2022/04/05 02:51:58;;;;;;;21.10;17.37;;;;;;;2.13;84.26;97229.05;2120116;84;21381;-80
2022/04/05 02:54:59;;;;;;;20.93;18.83;;;;;;;2.13;84.07;97245.78;2110115;83;20967;-79
2022/04/05 02:57:59;;;;;;;19.87;17.40;;;;;;;2.16;83.37;97244.13;2119627;84;21005;-81
2022/04/05 03:00:59;;;;;;;19.60;17.50;;;;;;;2.24;83.75;97236.55;2120482;84;21069;-80
2022/04/05 03:04:00;;;;;;;20.80;18.13;;;;;;;2.28;83.98;97228.05;2121583;83;21006;-80
2022/04/05 03:07:00;;;;;;;18.87;16.97;;;;;;;2.31;83.50;97243.97;2112010;84;21393;-80
2022/04/05 03:10:01;;;;;;;20.13;17.97;;;;;;;2.33;83.48;97236.72;2111830;84;21002;-80
2022/04/05 03:13:01;;;;;;;18.70;16.50;;;;;;;2.37;82.95;97227.34;2092408;84;21007;-80
2022/04/05 03:16:02;;;;;;;18.97;17.07;;;;;;;2.40;83.29;97238.57;2099459;84;21062;-81
2022/04/05 03:19:02;;;;;;;19.17;17.00;;;;;;;2.41;83.07;97234.29;2120352;84;20987;-80
2022/04/05 03:22:05;;;;;;;19.23;17.27;;;;;;;2.41;83.67;97236.44;2110743;83;20979;-81
2022/04/05 03:25:05;;;;;;;18.53;16.73;;;;;;;2.43;83.33;97232.61;2120589;84;20982;-81
2022/04/05 03:28:06;;;;;;;18.50;15.93;;;;;;;2.44;83.37;97234.34;2118810;84;21034;-79
2022/04/05 03:31:07;;;;;;;20.10;17.03;;;;;;;2.46;83.32;97229.66;2102782;84;20982;-80
2022/04/05 03:34:07;;;;;;;19.03;17.13;;;;;;;2.50;83.44;97235.31;2117957;84;21037;-80
2022/04/05 03:37:08;;;;;;;19.47;17.47;;;;;;;2.53;83.52;97235.37;2108774;84;21041;-80
2022/04/05 03:40:08;;;;;;;18.00;16.13;;;;;;;2.55;83.00;97223.80;2102150;84;21480;-80
2022/04/05 03:43:12;;;;;;;17.07;15.30;;;;;;;2.59;82.94;97228.17;2099947;84;21784;-79
2022/04/05 03:46:11;;;;;;;17.70;15.80;;;;;;;2.63;82.81;97218.81;2117430;84;21457;-79
2022/04/05 03:49:11;;;;;;;18.67;16.70;;;;;;;2.67;82.55;97227.05;2112560;83;21010;-80
2022/04/05 03:52:12;;;;;;;19.70;16.03;;;;;;;2.68;82.87;97213.32;2117057;84;21009;-80
2022/04/05 03:55:12;;;;;;;20.03;17.63;;;;;;;2.71;82.58;97213.38;2109945;84;20990;-80
2022/04/05 03:58:13;;;;;;;17.63;15.83;;;;;;;2.73;82.53;97220.28;2118161;83;21026;-80
2022/04/05 04:01:13;;;;;;;17.20;15.40;;;;;;;2.71;83.24;97212.08;2118992;84;20962;-79
2022/04/05 04:04:14;;;;;;;20.47;17.70;;;;;;;2.70;83.16;97215.50;2118170;84;21009;-80
2022/04/05 04:07:14;;;;;;;19.87;17.80;;;;;;;2.72;82.55;97217.68;2119690;84;21393;-79
2022/04/05 04:10:15;;;;;;;18.20;16.37;;;;;;;2.77;82.64;97214.76;2119690;84;20955;-79
2022/04/05 04:13:16;;;;;;;20.43;18.33;;;;;;;2.74;82.80;97217.28;2120905;84;20951;-81
2022/04/05 04:16:17;;;;;;;18.03;16.33;;;;;;;2.76;82.57;97220.33;2104567;84;21354;-79
2022/04/05 04:19:18;;;;;;;19.67;17.67;;;;;;;2.79;83.34;97212.66;2116531;83;21030;-79
2022/04/05 04:22:18;;;;;;;18.10;16.30;;;;;;;2.84;82.57;97212.73;2108374;83;20977;-80
2022/04/05 04:25:19;;;;;;;19.43;17.37;;;;;;;2.87;82.54;97221.80;2115283;84;20987;-80
2022/04/05 04:28:20;;;;;;;17.87;16.03;;;;;;;2.88;82.47;97224.81;2117989;83;20982;-80
2022/04/05 04:31:21;;;;;;;17.27;15.57;;;;;;;2.93;82.36;97207.72;2123112;84;22192;-79
2022/04/05 04:34:21;;;;;;;16.37;14.77;;;;;;;2.94;82.16;97208.58;2117225;84;20987;-80
2022/04/05 04:37:21;;;;;;;16.40;14.80;;;;;;;2.92;82.38;97221.87;2109973;83;21021;-79
2022/04/05 04:40:22;;;;;;;16.43;14.73;;;;;;;2.95;82.13;97221.91;2117412;84;21023;-78
2022/04/05 04:43:23;;;;;;;20.03;15.57;;;;;;;2.97;81.87;97231.41;2117099;84;21015;-81
2022/04/05 04:46:23;;;;;;;16.80;15.13;;;;;;;2.99;81.91;97236.16;2117989;84;21459;-79
2022/04/05 04:49:24;;;;;;;14.63;13.33;;;;;;;3.00;81.50;97237.03;2108041;83;21485;-80
2022/04/05 04:52:44;;;;;;;16.00;14.33;;;;;;;3.06;81.58;97240.57;2348014;75;22662;-82
2022/04/05 04:55:45;;;;;;;13.53;12.30;;;;;;;3.05;82.40;97232.39;2315544;77;21002;-84
2022/04/05 04:58:45;;;;;;;16.20;14.60;;;;;;;3.09;81.46;97239.33;2316359;77;20966;-83
2022/04/05 05:01:46;;;;;;;15.20;13.80;;;;;;;3.14;81.22;97238.11;2316223;77;20974;-83
2022/04/05 05:04:46;;;;;;;15.63;14.03;;;;;;;3.15;80.98;97252.73;2316458;77;20979;-85
2022/04/05 05:07:50;;;;;;;15.03;13.60;;;;;;;3.15;81.33;97238.55;2315725;77;20935;-81
2022/04/05 05:10:50;;;;;;;16.53;14.93;;;;;;;3.13;81.22;97232.08;2315900;77;21050;-81
2022/04/05 05:13:52;;;;;;;15.57;13.97;;;;;;;3.14;80.99;97233.82;2315060;77;20942;-83
2022/04/05 05:16:53;;;;;;;16.03;14.33;;;;;;;3.19;81.17;97233.47;2315522;77;21663;-79
2022/04/05 05:19:53;;;;;;;15.17;13.67;;;;;;;3.22;81.03;97227.91;2315385;77;21510;-83
2022/04/05 05:22:54;;;;;;;14.97;13.03;;;;;;;3.24;81.21;97230.09;2316298;77;20958;-83
2022/04/05 05:25:54;;;;;;;13.80;12.40;;;;;;;3.22;81.18;97240.80;2316069;77;20916;-83
2022/04/05 05:28:55;;;;;;;15.00;13.50;;;;;;;3.22;81.23;97231.78;2316466;77;21342;-81
2022/04/05 05:31:55;;;;;;;15.07;13.07;;;;;;;3.23;81.13;97237.38;2316404;77;21377;-82
2022/04/05 05:34:56;;;;;;;13.07;11.73;;;;;;;3.24;80.95;97233.95;2316968;77;21334;-81
2022/04/05 05:37:57;;;;;;;18.87;15.03;;;;;;;3.23;81.28;97242.11;2316389;77;20907;-83
2022/04/05 05:40:57;;;;;;;14.80;13.40;;;;;;;3.27;81.06;97247.77;2316622;77;20955;-83
2022/04/05 05:43:58;;;;;;;13.27;11.87;;;;;;;3.34;81.00;97248.30;2316075;77;20975;-85
2022/04/05 05:46:58;;;;;;;13.83;12.43;;;;;;;3.35;81.52;97243.58;2316997;77;21335;-81
2022/04/05 05:49:59;;;;;;;14.80;13.30;;;;;;;3.38;81.06;97256.52;2315899;76;20955;-80
2022/04/05 05:52:59;;;;;;;14.30;13.00;;;;;;;3.43;81.34;97260.45;2315809;77;20982;-84
2022/04/05 05:56:00;;;;;;;13.73;12.43;;;;;;;3.44;81.17;97267.35;2315998;77;21350;-82
2022/04/05 05:59:00;;;;;;;15.20;13.60;;;;;;;3.43;81.44;97263.91;2316067;77;20951;-82
2022/04/05 06:02:04;;;;;;;12.93;11.50;;;;;;;3.48;81.74;97271.74;2316424;77;20942;-79
2022/04/05 06:05:04;;;;;;;14.40;12.10;;;;;;;3.49;81.26;97270.47;2315669;77;20962;-79
2022/04/05 06:08:05;;;;;;;20.57;18.37;;;;;;;3.43;81.61;97274.22;2314949;77;20970;-81
2022/04/05 06:11:07;;;;;;;19.07;16.97;;;;;;;3.36;81.80;97268.53;2315458;77;20951;-80
2022/04/05 06:14:07;;;;;;;15.57;13.97;;;;;;;3.35;81.65;97286.56;2315255;77;20986;-79
2022/04/05 06:17:08;;;;;;;15.27;13.70;;;;;;;3.42;82.19;97281.94;2315348;77;21373;-80
2022/04/05 06:20:09;;;;;;;12.50;11.27;;;;;;;3.49;82.23;97279.92;2315439;77;21350;-80
2022/04/05 06:23:09;;;;;;;13.60;11.37;;;;;;;3.49;82.10;97285.95;2314920;77;21438;-82
2022/04/05 06:26:11;;;;;;;12.60;11.33;;;;;;;3.54;82.04;97284.73;2315870;77;20994;-81
2022/04/05 06:29:11;;;;;;;12.97;11.77;;;;;;;3.52;82.22;97291.58;2315047;77;21952;-82
2022/04/05 06:32:12;;;;;;;13.97;12.57;;;;;;;3.48;82.49;97293.67;2314946;77;20971;-80
2022/04/05 06:35:12;;;;;;;13.10;11.80;;;;;;;3.57;82.11;97288.64;2314560;77;20943;-82
2022/04/05 06:38:13;;;;;;;12.53;11.33;;;;;;;3.60;82.18;97290.39;2315919;77;20982;-81
2022/04/05 06:41:13;;;;;;;13.30;12.00;;;;;;;3.59;82.49;97292.53;2315843;77;20943;-81
2022/04/05 06:44:14;;;;;;;13.90;12.60;;;;;;;3.64;82.55;97293.05;2316049;77;20981;-80
2022/04/05 06:47:14;;;;;;;13.47;12.07;;;;;;;3.64;82.26;97294.33;2315254;77;21330;-82
2022/04/05 06:50:20;;;;;;;13.83;12.43;;;;;;;3.70;82.51;97300.00;2315613;77;21396;-81
2022/04/05 06:53:17;;;;;;;19.30;17.23;;;;;;;3.81;82.08;97309.63;2314418;77;21051;-82
2022/04/05 06:56:21;;;;;;;14.50;13.10;;;;;;;3.95;81.95;97287.00;2315690;77;20963;-81
2022/04/05 06:59:20;;;;;;;13.47;12.07;;;;;;;4.06;81.80;97298.33;2313820;77;20963;-80
2022/04/05 07:02:22;;;;;;;13.57;12.20;;;;;;;4.10;81.76;97292.36;2314978;77;20994;-80
2022/04/05 07:05:23;;;;;;;12.23;10.93;;;;;;;4.16;81.40;97302.77;2314774;77;21350;-82
2022/04/05 07:08:23;;;;;;;12.47;11.23;;;;;;;4.31;81.29;97309.41;2284204;77;20900;-80
2022/04/05 07:11:24;;;;;;;13.50;12.20;;;;;;;4.32;80.84;97298.64;2313585;77;21343;-82
2022/04/05 07:14:24;;;;;;;13.93;11.60;;;;;;;4.33;80.91;97306.84;2313600;77;20939;-80
2022/04/05 07:17:25;;;;;;;12.23;10.93;;;;;;;4.36;81.01;97308.20;2314005;77;20923;-82
2022/04/05 07:20:26;;;;;;;13.70;12.30;;;;;;;4.42;80.71;97317.31;2313734;77;21655;-83
2022/04/05 07:23:26;;;;;;;13.67;11.57;;;;;;;4.51;80.70;97304.49;2313855;77;20978;-79
2022/04/05 07:26:27;;;;;;;11.50;10.30;;;;;;;4.56;80.63;97306.70;2313226;77;21432;-81
2022/04/05 07:29:27;;;;;;;11.67;10.57;;;;;;;4.67;80.42;97310.27;2312908;77;21586;-81
2022/04/05 07:32:28;;;;;;;13.37;11.70;;;;;;;4.62;80.58;97294.27;2313092;77;21721;-80
2022/04/05 07:35:28;;;;;;;14.17;11.17;;;;;;;4.60;80.46;97315.36;2314520;77;20923;-81
2022/04/05 07:38:29;;;;;;;12.10;10.90;;;;;;;4.79;81.00;97310.81;2314863;77;20970;-79
2022/04/05 07:41:29;;;;;;;12.07;10.80;;;;;;;4.86;80.64;97311.31;2314820;77;20955;-80
2022/04/05 07:44:30;;;;;;;13.03;11.07;;;;;;;4.87;80.73;97317.36;2314422;77;20982;-81
2022/04/05 07:47:30;;;;;;;12.23;11.00;;;;;;;4.89;80.95;97324.70;2314031;77;20927;-80
2022/04/05 07:50:31;;;;;;;12.33;10.40;;;;;;;4.95;80.21;97317.87;2314060;77;20994;-81
2022/04/05 07:53:32;;;;;;;10.80;9.80;;;;;;;5.04;80.40;97321.83;2300374;77;20960;-81
2022/04/05 07:56:32;;;;;;;14.43;12.50;;;;;;;5.11;80.31;97326.20;2299708;77;20933;-81
2022/04/05 07:59:33;;;;;;;16.07;13.20;;;;;;;5.20;80.05;97323.27;2299776;77;21295;-81
2022/04/05 08:02:33;;;;;;;10.63;9.53;;;;;;;5.37;79.96;97324.30;2300272;77;20941;-82
2022/04/05 08:05:34;;;;;;;11.33;9.80;;;;;;;5.34;79.51;97328.16;2299952;77;20941;-79
2022/04/05 08:08:34;;;;;;;12.57;11.30;;;;;;;5.27;79.66;97335.42;2298810;77;20953;-80
2022/04/05 08:11:34;;;;;;;9.20;8.40;;;;;;;5.42;79.25;97332.97;2298589;77;21831;-81
2022/04/05 08:14:35;;;;;;;10.00;9.00;;;;;;;5.56;79.48;97340.41;2299821;77;21276;-81
2022/04/05 08:17:35;;;;;;;8.57;7.77;;;;;;;5.61;78.82;97336.13;2299887;77;20976;-80
2022/04/05 08:20:36;;;;;;;15.47;13.03;;;;;;;5.64;78.68;97342.63;2299741;77;20945;-80
2022/04/05 08:23:38;;;;;;;11.47;10.23;;;;;;;5.69;78.84;97335.75;2300415;77;20960;-82
2022/04/05 08:26:38;;;;;;;9.43;8.53;;;;;;;5.66;78.18;97344.80;2300750;77;21021;-80
2022/04/05 08:29:41;;;;;;;9.27;8.20;;;;;;;5.68;77.84;97343.51;2300215;77;20941;-80
2022/04/05 08:32:42;;;;;;;6.53;5.70;;;;;;;5.85;78.28;97341.03;2300070;77;20989;-80
2022/04/05 08:35:42;;;;;;;6.87;6.17;;;;;;;5.89;77.66;97347.97;2300035;77;21024;-80
2022/04/05 08:38:43;;;;;;;6.60;6.00;;;;;;;5.88;77.70;97350.12;2299664;77;21379;-81
2022/04/05 08:41:43;;;;;;;8.37;6.77;;;;;;;5.86;77.58;97362.19;2300036;77;21392;-82
2022/04/05 08:44:44;;;;;;;6.83;6.10;;;;;;;5.92;77.34;97363.55;2299880;77;20964;-78
2022/04/05 08:47:46;;;;;;;6.23;4.93;;;;;;;5.96;77.27;97366.60;2299832;77;20945;-80
2022/04/05 08:50:46;;;;;;;8.70;6.87;;;;;;;5.81;77.58;97366.47;2300526;77;21024;-79
2022/04/05 08:53:48;;;;;;;6.30;5.63;;;;;;;5.67;77.48;97376.73;2283517;76;20971;-82
2022/04/05 08:56:50;;;;;;;7.93;6.60;;;;;;;5.70;77.93;97373.73;2282317;78;20939;-83
2022/04/05 08:59:50;;;;;;;6.77;6.13;;;;;;;5.86;79.50;97374.70;2282546;78;21405;-83
2022/04/05 09:02:51;;;;;;;7.83;6.53;;;;;;;5.92;77.14;97378.66;2282783;78;20938;-80
2022/04/05 09:05:51;;;;;;;8.03;6.77;;;;;;;5.72;77.65;97386.27;2282070;78;20954;-83
2022/04/05 09:08:52;;;;;;;8.33;6.33;;;;;;;5.56;77.80;97392.59;2282683;78;20939;-83
2022/04/05 09:11:56;;;;;;;6.03;5.43;;;;;;;5.50;78.51;97390.83;2282934;78;20970;-83
2022/04/05 09:14:56;;;;;;;5.33;4.83;;;;;;;5.53;78.61;97393.44;2282945;78;20965;-82
2022/04/05 09:17:57;;;;;;;4.90;4.37;;;;;;;5.52;78.70;97393.00;2282278;78;20956;-82
2022/04/05 09:20:57;;;;;;;6.20;4.47;;;;;;;5.51;78.67;97395.15;2282951;78;21425;-83
2022/04/05 09:23:58;;;;;;;6.97;6.37;;;;;;;5.48;78.96;97396.41;2282843;78;20938;-82
2022/04/05 09:26:58;;;;;;;6.47;5.87;;;;;;;5.58;78.88;97396.94;2282993;78;20919;-83
2022/04/05 09:29:59;;;;;;;5.43;4.60;;;;;;;5.84;78.72;97400.16;2282957;78;20958;-84
2022/04/05 09:32:59;;;;;;;6.10;5.53;;;;;;;5.83;78.34;97398.42;2283326;78;20931;-83
2022/04/05 09:36:00;;;;;;;4.60;3.90;;;;;;;5.85;78.59;97405.77;2283588;78;20938;-82
2022/04/05 09:39:00;;;;;;;7.30;6.47;;;;;;;5.78;79.03;97413.92;2283240;78;20934;-84
2022/04/05 09:42:01;;;;;;;5.83;5.27;;;;;;;5.87;79.16;97413.12;2283420;78;20982;-82
2022/04/05 09:45:01;;;;;;;5.73;5.13;;;;;;;5.94;78.56;97418.82;2283577;78;20970;-83
2022/04/05 09:48:02;;;;;;;5.73;5.00;;;;;;;5.96;79.16;97412.80;2282786;78;21368;-82
2022/04/05 09:51:03;;;;;;;6.13;5.63;;;;;;;5.94;78.62;97417.52;2282517;78;21901;-83
2022/04/05 09:54:03;;;;;;;5.00;3.97;;;;;;;5.96;78.77;97416.68;2282973;76;20966;-83
2022/04/05 09:57:06;;;;;;;4.60;4.20;;;;;;;5.89;78.36;97409.72;2282561;78;21436;-84
2022/04/05 10:00:07;;;;;;;4.27;3.97;;;;;;;5.84;78.98;97411.38;2283263;78;20935;-81
2022/04/05 10:03:11;;;;;;;6.57;6.03;;;;;;;5.78;78.62;97422.98;2283086;78;21369;-83
2022/04/05 10:06:12;;;;;;;5.62;4.87;;;;;;;5.76;78.96;97413.91;2282765;78;21029;-83
2022/04/05 10:09:12;;;;;;;7.03;6.43;;;;;;;5.77;78.36;97427.72;2282855;78;20938;-83
2022/04/05 10:12:16;;;;;;;5.60;4.93;;;;;;;5.70;78.90;97422.92;2283391;78;20978;-82
2022/04/05 10:15:16;;;;;;;5.80;5.20;;;;;;;5.63;79.42;97423.73;2283601;78;20991;-83
2022/04/05 10:18:18;;;;;;;3.93;3.63;;;;;;;5.58;79.27;97426.70;2284014;78;21404;-84
2022/04/05 10:21:19;;;;;;;5.13;4.60;;;;;;;5.56;79.40;97423.66;2283789;78;21736;-83
2022/04/05 10:24:19;;;;;;;29.40;7.40;;;;;;;5.49;79.41;97427.05;2283109;78;21002;-86
2022/04/05 10:27:20;;;;;;;39.63;12.10;;;;;;;6.49;91.28;97438.20;2284324;78;21771;-83
2022/04/05 10:30:21;;;;;;;38.83;13.03;;;;;;;7.90;82.23;97438.20;2282789;78;21021;-86
2022/04/05 10:33:22;;;;;;;18.90;7.47;;;;;;;9.49;82.71;97431.68;2283047;78;20987;-86
2022/04/05 10:39:25;;;;;;;6.73;4.63;;;;;;;10.88;69.89;97430.94;2255575;78;20970;-86
2022/04/05 10:42:25;;;;;;;8.03;4.50;;;;;;;11.55;70.21;97432.70;2282161;78;21427;-82
2022/04/05 10:45:28;;;;;;;5.67;4.47;;;;;;;12.20;62.88;97436.09;2282068;78;21802;-84
2022/04/05 10:48:31;;;;;;;7.13;4.63;;;;;;;10.83;62.40;97436.22;2281898;77;20995;-83
2022/04/05 10:51:31;;;;;;;4.63;3.90;;;;;;;9.67;64.30;97439.84;2282018;77;21473;-83
2022/04/05 10:54:31;;;;;;;5.10;4.60;;;;;;;8.83;66.45;97438.96;2300917;77;20949;-82
2022/04/05 10:57:33;;;;;;;6.70;5.77;;;;;;;8.35;68.04;97449.47;2301013;77;20992;-84
2022/04/05 11:00:33;;;;;;;6.47;5.67;;;;;;;7.89;69.25;97454.66;2301015;77;20984;-83
2022/04/05 11:03:34;;;;;;;12.37;9.10;;;;;;;7.51;70.47;97460.66;2301454;77;20929;-84
2022/04/05 11:06:34;;;;;;;13.37;10.80;;;;;;;7.16;71.42;97465.76;2301651;77;20965;-84
2022/04/05 11:09:35;;;;;;;16.37;11.57;;;;;;;6.94;72.47;97459.62;2301081;77;20937;-82
2022/04/05 11:12:35;;;;;;;14.03;12.53;;;;;;;6.71;73.61;97468.57;2300847;77;20964;-84
2022/04/05 11:15:36;;;;;;;10.97;9.73;;;;;;;6.50;75.33;97468.88;2300886;77;20944;-84
2022/04/05 11:18:37;;;;;;;8.57;7.77;;;;;;;6.69;75.28;97473.31;2300789;77;20981;-83
2022/04/05 11:21:37;;;;;;;8.37;7.50;;;;;;;6.80;75.98;97476.83;2300984;77;21035;-84
2022/04/05 11:24:38;;;;;;;14.57;8.50;;;;;;;6.95;75.25;97461.79;2300645;77;20965;-85
2022/04/05 11:27:42;;;;;;;6.83;6.23;;;;;;;6.90;75.66;97470.81;2301417;77;20984;-84
2022/04/05 11:30:41;;;;;;;7.50;6.77;;;;;;;7.08;75.18;97465.30;2300073;77;21063;-82
2022/04/05 11:33:42;;;;;;;8.33;7.53;;;;;;;7.34;75.14;97457.16;2300181;77;21396;-82
2022/04/05 11:36:45;;;;;;;6.40;5.43;;;;;;;7.59;74.64;97464.13;2300518;77;20937;-82
2022/04/05 11:39:45;;;;;;;5.10;4.60;;;;;;;7.81;73.47;97462.89;2300672;77;20989;-83
2022/04/05 11:42:45;;;;;;;5.20;4.60;;;;;;;7.85;72.79;97464.19;2300907;77;21280;-82
2022/04/05 11:45:46;;;;;;;5.40;4.90;;;;;;;7.79;72.57;97465.88;2301263;77;21063;-83
2022/04/05 11:48:46;;;;;;;6.97;6.00;;;;;;;7.52;72.60;97478.40;2301706;77;20945;-82
2022/04/05 11:51:48;;;;;;;6.73;6.03;;;;;;;7.32;73.54;97484.84;2300882;76;21004;-81
2022/04/05 11:58:07;;;;;;;6.43;5.23;;;;;;;6.66;75.07;97483.66;2283337;78;21018;-83
2022/04/05 12:01:08;;;;;;;7.03;6.43;;;;;;;6.66;75.07;97483.66;2283180;78;21358;-82
2022/04/05 12:04:08;;;;;;;8.40;7.30;;;;;;;6.59;75.99;97485.36;2283309;78;20985;-82
2022/04/05 12:07:09;;;;;;;9.13;8.20;;;;;;;6.52;76.58;97486.61;2281865;78;20918;-81
2022/04/05 12:10:09;;;;;;;8.93;8.10;;;;;;;6.43;76.53;97484.83;2281837;78;20986;-80
2022/04/05 12:13:10;;;;;;;12.63;11.53;;;;;;;6.35;77.85;97492.55;2281863;78;20954;-83
2022/04/05 12:16:10;;;;;;;12.97;11.77;;;;;;;6.34;78.15;97499.02;2281928;78;20965;-83
2022/04/05 12:19:11;;;;;;;11.13;10.03;;;;;;;6.45;78.11;97497.37;2281400;78;20977;-82
2022/04/05 12:22:12;;;;;;;16.93;8.20;;;;;;;6.59;78.18;97494.44;2281600;78;21357;-85
2022/04/05 12:25:13;;;;;;;14.73;9.60;;;;;;;10.78;81.14;97489.78;2281973;78;20938;-83
2022/04/05 12:28:14;;;;;;;13.90;8.97;;;;;;;10.78;81.14;97489.78;2282235;78;21009;-83
2022/04/05 12:31:17;;;;;;;9.90;8.27;;;;;;;13.60;67.52;97483.17;2282240;78;20982;-82
2022/04/05 12:34:18;;;;;;;8.27;7.23;;;;;;;12.75;61.33;97490.94;2282634;78;20982;-84
2022/04/05 12:37:20;;;;;;;16.97;11.17;;;;;;;10.89;62.63;97504.45;2282544;78;21464;-83
2022/04/05 12:40:20;;;;;;;20.07;12.27;;;;;;;9.42;65.96;97508.13;2282072;78;21041;-82
2022/04/05 12:43:24;;;;;;;30.10;15.63;;;;;;;8.56;69.21;97501.00;2282838;78;20962;-82
2022/04/05 12:46:24;;;;;;;20.97;12.17;;;;;;;8.16;70.78;97504.04;2281967;78;21344;-83
2022/04/05 12:49:25;;;;;;;11.63;7.83;;;;;;;7.74;71.15;97511.77;2281872;78;20934;-82
2022/04/05 12:52:25;;;;;;;11.97;8.77;;;;;;;7.31;73.04;97509.06;2284400;77;20989;-83
2022/04/05 12:55:26;;;;;;;16.47;10.50;;;;;;;6.93;74.25;97518.82;2300310;77;21007;-79
2022/04/05 12:58:26;;;;;;;17.27;13.53;;;;;;;6.84;75.34;97519.20;2301054;77;20976;-82
2022/04/05 13:01:29;;;;;;;13.77;11.20;;;;;;;6.95;75.68;97518.44;2300880;77;21362;-81
2022/04/05 13:04:29;;;;;;;12.67;10.63;;;;;;;7.31;76.60;97490.89;2300474;77;21016;-81
2022/04/05 13:07:29;;;;;;;6.57;5.97;;;;;;;7.31;76.60;97490.89;2300524;77;20929;-82
2022/04/05 13:10:30;;;;;;;4.77;3.53;;;;;;;7.51;75.08;97509.13;2301451;77;20945;-81
2022/04/05 13:13:30;;;;;;;4.30;3.80;;;;;;;7.77;73.00;97513.07;2301715;77;20945;-83
2022/04/05 13:16:31;;;;;;;5.40;4.20;;;;;;;7.87;72.94;97514.84;2301532;77;20989;-82
2022/04/05 13:19:34;;;;;;;4.50;3.70;;;;;;;7.96;73.38;97514.86;2301027;77;21415;-78
2022/04/05 13:22:35;;;;;;;4.87;4.40;;;;;;;8.06;72.98;97515.30;2301435;77;21023;-78
2022/04/05 13:25:35;;;;;;;5.70;4.83;;;;;;;8.00;73.10;97523.09;2302219;77;20937;-82
2022/04/05 13:28:36;;;;;;;9.07;5.47;;;;;;;8.06;72.84;97526.99;2301917;77;21098;-82
2022/04/05 13:31:36;;;;;;;5.57;4.80;;;;;;;8.15;72.99;97517.03;2301720;77;20999;-81
2022/04/05 13:34:37;;;;;;;5.07;4.53;;;;;;;7.98;72.54;97517.03;2301284;77;20985;-83
2022/04/05 13:37:37;;;;;;;5.57;4.63;;;;;;;8.07;72.35;97524.83;2302209;77;20932;-82
2022/04/05 13:40:38;;;;;;;7.47;5.20;;;;;;;8.11;72.85;97516.17;2302127;77;20945;-81
2022/04/05 13:43:39;;;;;;;7.90;6.40;;;;;;;8.27;72.70;97519.20;2301856;77;21244;-82
2022/04/05 13:46:39;;;;;;;7.07;4.83;;;;;;;8.41;73.28;97522.26;2302018;77;20968;-81
2022/04/05 13:49:41;;;;;;;9.77;5.77;;;;;;;8.50;71.03;97520.52;2302365;77;20951;-83
2022/04/05 13:52:42;;;;;;;12.33;6.70;;;;;;;8.71;71.13;97520.09;2301732;77;21067;-82
2022/04/05 13:55:44;;;;;;;9.97;5.73;;;;;;;8.86;69.89;97524.82;2302104;77;21044;-82
2022/04/05 13:58:44;;;;;;;11.47;5.87;;;;;;;9.04;69.94;97520.00;2302052;77;21051;-82
2022/04/05 14:01:45;;;;;;;8.73;5.50;;;;;;;9.25;69.94;97525.56;2302640;77;20968;-83
2022/04/05 14:04:45;;;;;;;5.33;4.37;;;;;;;9.50;69.46;97518.50;2302109;77;21020;-83
2022/04/05 14:11:09;;;;;;;4.40;3.93;;;;;;;9.88;67.88;97505.28;2335689;76;22804;-82
2022/04/05 14:14:09;;;;;;;4.87;4.37;;;;;;;10.02;67.07;97513.00;2254637;78;21034;-82
2022/04/05 14:17:10;;;;;;;6.30;4.30;;;;;;;10.10;67.10;97510.77;2253962;79;20919;-82